createdAt,value
2023-02-24T00:02:06.389Z,7.67
2023-02-24T00:04:40.463Z,6.47
2023-02-24T00:07:09.173Z,11.83
2023-02-24T00:09:37.293Z,8.03
2023-02-24T00:12:09.050Z,9.33
2023-02-24T00:14:38.983Z,6.03
2023-02-24T00:17:08.376Z,6.97
2023-02-24T00:19:36.186Z,6.70
2023-02-24T00:22:05.288Z,4.30
2023-02-24T00:24:32.734Z,7.37
2023-02-24T00:27:02.106Z,8.60
2023-02-24T00:29:30.020Z,9.57
2023-02-24T00:32:01.522Z,6.37
2023-02-24T00:34:34.066Z,6.57
2023-02-24T00:37:02.024Z,6.20
2023-02-24T00:39:34.633Z,8.07
2023-02-24T00:42:07.063Z,11.83
2023-02-24T00:44:36.540Z,7.60
2023-02-24T00:47:05.073Z,7.87
2023-02-24T00:49:32.895Z,4.87
2023-02-24T00:52:00.402Z,10.73
2023-02-24T00:54:28.480Z,10.70
2023-02-24T00:56:56.394Z,9.30
2023-02-24T00:59:24.192Z,9.37
2023-02-24T01:01:51.638Z,5.90
2023-02-24T01:04:20.120Z,6.43
2023-02-24T01:06:49.529Z,9.07
2023-02-24T01:09:19.965Z,9.50
2023-02-24T01:12:07.991Z,7.70
2023-02-24T01:14:36.192Z,9.83
2023-02-24T01:17:04.327Z,7.30
2023-02-24T01:19:32.933Z,5.27
2023-02-24T01:22:10.144Z,8.37
2023-02-24T01:24:43.427Z,9.33
2023-02-24T01:27:12.816Z,6.67
2023-02-24T01:29:40.987Z,5.50
2023-02-24T01:32:19.652Z,4.20
2023-02-24T01:34:48.198Z,6.43
2023-02-24T01:37:16.637Z,7.60
2023-02-24T01:39:47.636Z,9.60
2023-02-24T01:42:17.165Z,7.33
2023-02-24T01:44:48.076Z,6.87
2023-02-24T01:47:22.833Z,7.43
2023-02-24T01:49:53.076Z,5.30
2023-02-24T01:52:22.053Z,7.60
2023-02-24T01:55:09.385Z,6.77
2023-02-24T01:57:38.913Z,8.17
2023-02-24T02:00:12.340Z,7.77
2023-02-24T02:02:43.509Z,5.83
2023-02-24T02:05:11.632Z,5.30
2023-02-24T02:07:41.344Z,7.90
2023-02-24T02:10:09.827Z,5.17
2023-02-24T02:12:44.702Z,4.77
2023-02-24T02:15:20.711Z,6.00
2023-02-24T02:17:56.824Z,8.53
2023-02-24T02:21:01.235Z,5.97
2023-02-24T02:23:58.046Z,7.00
2023-02-24T02:27:04.440Z,7.83
2023-02-24T02:29:51.159Z,6.47
2023-02-24T02:32:52.249Z,8.13
2023-02-24T02:35:25.512Z,5.57
2023-02-24T02:38:26.143Z,8.50
2023-02-24T02:41:15.233Z,6.53
2023-02-24T02:44:03.098Z,6.57
2023-02-24T02:46:38.598Z,7.47
2023-02-24T02:49:23.832Z,6.90
2023-02-24T02:51:57.476Z,5.57
2023-02-24T02:54:38.179Z,7.60
2023-02-24T02:57:14.793Z,5.53
2023-02-24T02:59:49.474Z,4.77
2023-02-24T03:02:21.776Z,7.00
2023-02-24T03:04:56.039Z,5.57
2023-02-24T03:07:31.207Z,7.83
2023-02-24T03:10:10.795Z,4.70
2023-02-24T03:12:40.919Z,4.13
2023-02-24T03:15:11.122Z,10.77
2023-02-24T03:17:42.485Z,7.73
2023-02-24T03:20:29.252Z,9.03
2023-02-24T03:22:59.865Z,10.93
2023-02-24T03:25:34.670Z,6.00
2023-02-24T03:28:13.380Z,6.93
2023-02-24T03:31:00.772Z,7.80
2023-02-24T03:33:35.626Z,9.43
2023-02-24T03:36:02.793Z,3.23
2023-02-24T03:38:33.026Z,11.93
2023-02-24T03:41:00.203Z,11.70
2023-02-24T03:43:32.745Z,6.80
2023-02-24T03:46:01.523Z,7.63
2023-02-24T03:48:29.118Z,6.93
2023-02-24T03:50:56.781Z,9.60
2023-02-24T03:53:35.988Z,7.00
2023-02-24T03:56:22.409Z,8.67
2023-02-24T03:59:15.074Z,7.53
2023-02-24T04:01:58.112Z,5.17
2023-02-24T04:05:09.964Z,6.17
2023-02-24T04:07:43.457Z,6.97
2023-02-24T04:10:26.095Z,3.83
2023-02-24T04:13:02.178Z,8.13
2023-02-24T04:15:29.670Z,7.13
2023-02-24T04:18:12.317Z,6.73
2023-02-24T04:20:41.309Z,7.03
2023-02-24T04:23:13.817Z,6.10
2023-02-24T04:25:45.099Z,5.33
2023-02-24T04:28:13.686Z,4.50
2023-02-24T04:30:48.563Z,11.30
2023-02-24T04:33:15.918Z,8.03
2023-02-24T04:35:45.744Z,4.90
2023-02-24T04:38:13.156Z,6.53
2023-02-24T04:40:42.962Z,6.03
2023-02-24T04:43:10.313Z,11.97
2023-02-24T04:45:40.260Z,7.33
2023-02-24T04:48:12.833Z,7.10
2023-02-24T04:50:43.040Z,3.40
2023-02-24T04:53:11.651Z,5.53
2023-02-24T04:55:48.935Z,7.27
2023-02-24T04:58:21.714Z,7.10
2023-02-24T05:00:53.073Z,5.37
2023-02-24T05:03:21.654Z,5.90
2023-02-24T05:05:58.257Z,4.57
2023-02-24T05:08:26.298Z,4.93
2023-02-24T05:10:53.743Z,4.70
2023-02-24T05:13:27.520Z,5.60
2023-02-24T05:15:56.643Z,7.53
2023-02-24T05:18:29.712Z,2.73
2023-02-24T05:21:16.147Z,4.23
2023-02-24T05:23:46.837Z,6.43
2023-02-24T05:26:17.304Z,8.60
2023-02-24T05:28:49.384Z,8.37
2023-02-24T05:31:20.246Z,4.13
2023-02-24T05:33:49.883Z,5.17
2023-02-24T05:36:19.115Z,6.63
2023-02-24T05:38:48.067Z,6.40
2023-02-24T05:41:18.014Z,14.63
2023-02-24T05:43:54.908Z,5.90
2023-02-24T05:46:44.721Z,6.40
2023-02-24T05:49:24.132Z,4.60
2023-02-24T05:51:55.821Z,4.37
2023-02-24T05:54:35.795Z,5.93
2023-02-24T05:57:06.345Z,5.77
2023-02-24T05:59:33.763Z,5.17
2023-02-24T06:02:07.569Z,4.70
2023-02-24T06:04:51.465Z,6.63
2023-02-24T06:07:22.929Z,6.63
2023-02-24T06:09:57.903Z,5.90
2023-02-24T06:12:34.055Z,4.87
2023-02-24T06:15:02.405Z,8.00
2023-02-24T06:17:29.775Z,7.23
2023-02-24T06:19:56.828Z,6.93
2023-02-24T06:22:26.150Z,4.67
2023-02-24T06:24:54.537Z,9.10
2023-02-24T06:27:25.252Z,4.30
2023-02-24T06:29:54.161Z,4.97
2023-02-24T06:32:25.249Z,4.17
2023-02-24T06:34:53.975Z,5.17
2023-02-24T06:37:23.033Z,4.80
2023-02-24T06:39:50.319Z,8.13
2023-02-24T06:42:17.245Z,6.10
2023-02-24T06:44:44.136Z,10.70
2023-02-24T06:47:13.549Z,4.37
2023-02-24T06:49:42.920Z,9.87
2023-02-24T06:52:11.828Z,5.73
2023-02-24T06:54:38.917Z,7.83
2023-02-24T06:57:06.480Z,11.10
2023-02-24T06:59:34.356Z,6.53
2023-02-24T07:02:04.553Z,4.70
2023-02-24T07:04:39.894Z,5.93
2023-02-24T07:07:06.820Z,4.40
2023-02-24T07:09:35.717Z,9.53
2023-02-24T07:12:04.618Z,5.30
2023-02-24T07:14:32.531Z,6.93
2023-02-24T07:17:03.839Z,10.27
2023-02-24T07:19:34.975Z,5.70
2023-02-24T07:22:03.742Z,7.77
2023-02-24T07:24:39.408Z,8.77
2023-02-24T07:27:22.812Z,6.70
2023-02-24T07:29:53.988Z,5.03
2023-02-24T07:32:25.824Z,7.87
2023-02-24T07:34:53.118Z,6.20
2023-02-24T07:37:20.788Z,9.03
2023-02-24T07:39:47.745Z,6.67
2023-02-24T07:42:14.695Z,7.53
2023-02-24T07:44:44.657Z,7.13
2023-02-24T07:47:11.635Z,6.83
2023-02-24T07:49:39.841Z,8.63
2023-02-24T07:52:08.287Z,7.07
2023-02-24T07:54:39.457Z,14.57
2023-02-24T07:57:13.915Z,12.13
2023-02-24T07:59:47.334Z,13.57
2023-02-24T08:02:16.596Z,10.83
2023-02-24T08:04:50.516Z,6.83
2023-02-24T08:07:30.467Z,4.90
2023-02-24T08:10:12.436Z,15.27
2023-02-24T08:12:42.955Z,7.50
2023-02-24T08:15:24.252Z,10.13
2023-02-24T08:17:59.714Z,10.07
2023-02-24T08:20:36.237Z,9.13
2023-02-24T08:23:08.758Z,3.63
2023-02-24T08:25:36.357Z,7.77
2023-02-24T08:28:09.726Z,8.83
2023-02-24T08:30:40.298Z,4.67
2023-02-24T08:33:17.040Z,12.00
2023-02-24T08:35:46.690Z,7.43
2023-02-24T08:38:20.942Z,16.80
2023-02-24T08:40:52.583Z,8.33
2023-02-24T08:43:29.174Z,10.03
2023-02-24T08:46:18.390Z,12.47
2023-02-24T08:48:55.679Z,9.83
2023-02-24T08:51:35.543Z,10.50
2023-02-24T08:54:11.400Z,9.20
2023-02-24T08:56:43.843Z,7.40
2023-02-24T08:59:37.013Z,11.03
2023-02-24T09:02:23.573Z,13.07
2023-02-24T09:04:59.358Z,13.40
2023-02-24T09:07:29.392Z,9.80
2023-02-24T09:09:59.968Z,15.90
2023-02-24T09:12:29.579Z,9.07
2023-02-24T09:15:07.622Z,7.77
2023-02-24T09:17:40.874Z,13.33
2023-02-24T09:20:25.869Z,10.80
2023-02-24T09:22:57.876Z,8.70
2023-02-24T09:25:40.604Z,10.87
2023-02-24T09:28:27.482Z,6.33
2023-02-24T09:31:00.411Z,8.57
2023-02-24T09:33:41.813Z,9.97
2023-02-24T09:36:20.350Z,7.70
2023-02-24T09:39:02.428Z,14.90
2023-02-24T09:42:18.535Z,9.30
2023-02-24T09:44:55.780Z,7.83
2023-02-24T09:47:55.999Z,6.93
2023-02-24T09:51:01.459Z,10.30
2023-02-24T09:53:29.578Z,10.83
2023-02-24T09:56:00.930Z,11.00
2023-02-24T09:58:53.981Z,15.93
2023-02-24T10:01:43.601Z,12.30
2023-02-24T10:05:07.766Z,9.23
2023-02-24T10:07:43.992Z,10.33
2023-02-24T10:10:29.929Z,12.07
2023-02-24T10:13:14.496Z,6.10
2023-02-24T10:15:59.292Z,11.13
2023-02-24T10:18:40.028Z,8.70
2023-02-24T10:22:00.576Z,9.83
2023-02-24T10:24:41.372Z,10.60
2023-02-24T10:27:17.699Z,8.90
2023-02-24T10:30:05.927Z,12.70
2023-02-24T10:32:52.866Z,12.87
2023-02-24T10:35:26.044Z,10.03
2023-02-24T10:37:54.049Z,10.43
2023-02-24T10:40:43.912Z,11.37
2023-02-24T10:43:17.952Z,9.37
2023-02-24T10:45:47.442Z,9.67
2023-02-24T10:48:40.828Z,11.63
2023-02-24T10:51:20.506Z,14.17
2023-02-24T10:54:09.780Z,16.50
2023-02-24T10:57:07.718Z,14.17
2023-02-24T11:00:13.528Z,12.07
2023-02-24T11:03:07.046Z,10.57
2023-02-24T11:06:21.940Z,13.37
2023-02-24T11:09:18.879Z,11.80
2023-02-24T11:12:07.332Z,7.67
2023-02-24T11:15:09.946Z,17.37
2023-02-24T11:17:45.377Z,15.80
2023-02-24T11:20:24.297Z,13.57
2023-02-24T11:22:55.988Z,14.07
2023-02-24T11:25:36.915Z,11.90
2023-02-24T11:28:35.710Z,14.03
2023-02-24T11:31:12.882Z,12.80
2023-02-24T11:34:01.526Z,13.40
2023-02-24T11:37:09.832Z,9.80
2023-02-24T11:40:02.307Z,13.30
2023-02-24T11:42:46.190Z,15.43
2023-02-24T11:45:58.327Z,22.17
2023-02-24T11:48:32.259Z,12.37
2023-02-24T11:51:18.928Z,16.80
2023-02-24T11:54:11.858Z,16.17
2023-02-24T11:56:53.455Z,15.37
2023-02-24T11:59:40.128Z,11.07
2023-02-24T12:02:45.028Z,16.23
2023-02-24T12:05:19.645Z,11.23
2023-02-24T12:07:50.385Z,17.97
2023-02-24T12:10:34.338Z,14.27
2023-02-24T12:13:27.702Z,16.23
2023-02-24T12:16:33.401Z,16.27
2023-02-24T12:19:06.964Z,20.73
2023-02-24T12:21:42.124Z,16.83
2023-02-24T12:24:13.867Z,18.30
2023-02-24T12:27:21.176Z,17.47
2023-02-24T12:30:34.267Z,13.40
2023-02-24T12:33:01.918Z,19.80
2023-02-24T12:35:46.322Z,15.00
2023-02-24T12:38:55.810Z,22.27
2023-02-24T12:41:41.994Z,19.80
2023-02-24T12:44:51.850Z,15.90
2023-02-24T12:47:37.526Z,20.83
2023-02-24T12:50:28.376Z,16.43
2023-02-24T12:53:06.835Z,15.27
2023-02-24T12:55:52.561Z,15.30
2023-02-24T12:58:27.998Z,13.50
2023-02-24T13:01:11.338Z,12.63
2023-02-24T13:04:16.954Z,12.20
2023-02-24T13:07:21.219Z,12.63
2023-02-24T13:10:17.147Z,11.57
2023-02-24T13:12:49.515Z,13.50
2023-02-24T13:15:28.056Z,13.27
2023-02-24T13:17:58.098Z,14.53
2023-02-24T13:20:38.042Z,16.77
2023-02-24T13:23:21.202Z,14.50
2023-02-24T13:25:53.541Z,14.37
2023-02-24T13:28:31.262Z,10.27
2023-02-24T13:31:09.137Z,13.47
2023-02-24T13:33:44.140Z,13.43
2023-02-24T13:36:22.964Z,10.93
2023-02-24T13:38:51.980Z,10.63
2023-02-24T13:41:41.008Z,11.03
2023-02-24T13:44:25.947Z,13.77
2023-02-24T13:47:31.446Z,12.60
2023-02-24T13:50:18.889Z,13.50
2023-02-24T13:53:27.921Z,11.47
2023-02-24T13:56:45.758Z,14.30
2023-02-24T13:59:25.704Z,12.57
2023-02-24T14:01:58.697Z,8.87
2023-02-24T14:04:33.216Z,12.43
2023-02-24T14:07:09.015Z,12.90
2023-02-24T14:09:51.727Z,13.13
2023-02-24T14:12:34.850Z,10.43
2023-02-24T14:15:04.649Z,11.77
2023-02-24T14:17:37.772Z,10.43
2023-02-24T14:20:15.765Z,14.20
2023-02-24T14:22:54.935Z,11.97
2023-02-24T14:25:34.137Z,20.43
2023-02-24T14:28:03.496Z,15.60
2023-02-24T14:30:36.388Z,13.97
2023-02-24T14:33:08.579Z,13.40
2023-02-24T14:35:47.632Z,18.80
2023-02-24T14:38:36.893Z,24.57
2023-02-24T14:41:20.374Z,15.07
2023-02-24T14:43:49.947Z,20.27
2023-02-24T14:46:17.266Z,19.87
2023-02-24T14:48:45.415Z,14.73
2023-02-24T14:51:24.476Z,16.87
2023-02-24T14:54:11.991Z,14.80
2023-02-24T14:56:42.222Z,14.33
2023-02-24T14:59:39.949Z,16.07
2023-02-24T15:02:19.180Z,15.93
2023-02-24T15:04:49.565Z,14.10
2023-02-24T15:07:30.663Z,16.37
2023-02-24T15:10:02.636Z,12.33
2023-02-24T15:12:58.197Z,14.43
2023-02-24T15:15:30.276Z,18.70
2023-02-24T15:18:04.436Z,14.43
2023-02-24T15:20:40.843Z,14.57
2023-02-24T15:23:26.972Z,11.23
2023-02-24T15:25:54.979Z,18.37
2023-02-24T15:28:33.716Z,14.03
2023-02-24T15:31:11.083Z,13.73
2023-02-24T15:33:44.734Z,17.23
2023-02-24T15:36:24.110Z,24.70
2023-02-24T15:38:55.037Z,17.30
2023-02-24T15:41:21.931Z,21.63
2023-02-24T15:43:53.170Z,15.43
2023-02-24T15:46:33.468Z,16.13
2023-02-24T15:49:05.025Z,18.23
2023-02-24T15:51:41.158Z,16.20
2023-02-24T15:54:25.172Z,19.77
2023-02-24T15:56:52.400Z,21.90
2023-02-24T15:59:22.537Z,19.20
2023-02-24T16:01:51.953Z,13.60
2023-02-24T16:04:22.133Z,10.77
2023-02-24T16:06:55.856Z,18.97
2023-02-24T16:09:39.865Z,21.63
2023-02-24T16:12:17.241Z,20.37
2023-02-24T16:14:50.332Z,15.10
2023-02-24T16:17:41.486Z,14.40
2023-02-24T16:20:14.462Z,11.07
2023-02-24T16:22:43.587Z,10.93
2023-02-24T16:25:16.701Z,14.63
2023-02-24T16:27:43.739Z,20.40
2023-02-24T16:30:22.641Z,15.80
2023-02-24T16:32:53.417Z,15.47
2023-02-24T16:35:23.691Z,16.47
2023-02-24T16:37:50.713Z,19.23
2023-02-24T16:40:31.085Z,9.87
2023-02-24T16:42:58.071Z,15.03
2023-02-24T16:45:29.673Z,15.63
2023-02-24T16:48:01.809Z,19.30
2023-02-24T16:50:40.292Z,11.23
2023-02-24T16:53:08.500Z,14.40
2023-02-24T16:55:35.624Z,13.90
2023-02-24T16:58:02.558Z,17.23
2023-02-24T17:00:29.501Z,22.07
2023-02-24T17:02:56.564Z,13.73
2023-02-24T17:05:25.863Z,14.97
2023-02-24T17:07:55.580Z,22.50
2023-02-24T17:10:24.241Z,27.57
2023-02-24T17:12:53.245Z,13.60
2023-02-24T17:15:23.235Z,14.50
2023-02-24T17:17:52.202Z,14.67
2023-02-24T17:20:30.317Z,19.83
2023-02-24T17:22:58.624Z,16.43
2023-02-24T17:25:29.815Z,7.43
2023-02-24T17:27:58.709Z,18.77
2023-02-24T17:30:30.697Z,16.37
2023-02-24T17:32:58.019Z,16.47
2023-02-24T17:35:28.480Z,29.50
2023-02-24T17:37:55.835Z,12.07
2023-02-24T17:40:26.175Z,12.57
2023-02-24T17:42:55.217Z,7.20
2023-02-24T17:45:23.195Z,13.83
2023-02-24T17:47:52.720Z,12.17
2023-02-24T17:50:20.956Z,21.87
2023-02-24T17:52:48.044Z,13.57
2023-02-24T17:55:18.138Z,11.43
2023-02-24T17:57:48.224Z,13.10
2023-02-24T18:00:16.629Z,16.97
2023-02-24T18:02:46.777Z,15.93
2023-02-24T18:05:14.906Z,13.00
2023-02-24T18:07:45.093Z,11.20
2023-02-24T18:10:14.484Z,15.40
2023-02-24T18:12:41.469Z,10.67
2023-02-24T18:15:09.672Z,12.93
2023-02-24T18:17:38.203Z,10.40
2023-02-24T18:20:09.714Z,15.13
2023-02-24T18:22:37.299Z,12.77
2023-02-24T18:25:05.261Z,14.03
2023-02-24T18:27:32.464Z,18.67
2023-02-24T18:30:00.615Z,13.60
2023-02-24T18:32:29.833Z,10.87
2023-02-24T18:34:57.145Z,12.10
2023-02-24T18:37:24.093Z,16.43
2023-02-24T18:39:53.331Z,13.70
2023-02-24T18:42:21.482Z,12.17
2023-02-24T18:44:48.592Z,10.17
2023-02-24T18:47:15.472Z,13.47
2023-02-24T18:49:42.413Z,16.07
2023-02-24T18:52:11.581Z,16.97
2023-02-24T18:54:38.624Z,8.07
2023-02-24T18:57:05.661Z,11.80
2023-02-24T18:59:32.660Z,11.37
2023-02-24T19:01:59.591Z,9.93
2023-02-24T19:04:26.701Z,8.17
2023-02-24T19:06:53.675Z,7.07
2023-02-24T19:09:21.943Z,11.30
2023-02-24T19:11:49.902Z,12.60
2023-02-24T19:14:16.902Z,17.27
2023-02-24T19:16:44.002Z,17.37
2023-02-24T19:19:17.217Z,15.20
2023-02-24T19:21:48.545Z,15.53
2023-02-24T19:24:17.094Z,10.70
2023-02-24T19:26:45.966Z,15.43
2023-02-24T19:29:13.314Z,15.47
2023-02-24T19:31:40.579Z,16.60
2023-02-24T19:34:11.512Z,15.57
2023-02-24T19:36:39.202Z,9.90
2023-02-24T19:39:10.471Z,13.93
2023-02-24T19:41:38.452Z,13.07
2023-02-24T19:44:05.496Z,12.80
2023-02-24T19:46:34.233Z,17.00
2023-02-24T19:49:01.658Z,7.83
2023-02-24T19:51:29.089Z,15.33
2023-02-24T19:53:58.708Z,16.70
2023-02-24T19:56:28.662Z,11.93
2023-02-24T19:58:57.430Z,9.77
2023-02-24T20:01:25.682Z,13.40
2023-02-24T20:03:56.552Z,10.13
2023-02-24T20:06:33.221Z,5.57
2023-02-24T20:09:01.412Z,15.17
2023-02-24T20:11:29.878Z,12.50
2023-02-24T20:13:57.250Z,8.57
2023-02-24T20:16:26.149Z,7.63
2023-02-24T20:18:55.470Z,15.37
2023-02-24T20:21:24.213Z,16.60
2023-02-24T20:23:52.368Z,15.83
2023-02-24T20:26:21.239Z,16.40
2023-02-24T20:28:55.401Z,24.73
2023-02-24T20:31:24.067Z,13.83
2023-02-24T20:33:51.359Z,14.23
2023-02-24T20:36:24.001Z,17.47
2023-02-24T20:38:55.310Z,22.97
2023-02-24T20:41:26.735Z,21.90
2023-02-24T20:43:54.823Z,16.83
2023-02-24T20:46:32.378Z,20.27
2023-02-24T20:49:07.033Z,19.17
2023-02-24T20:51:37.534Z,19.17
2023-02-24T20:54:12.372Z,23.17
2023-02-24T20:56:43.190Z,20.70
2023-02-24T20:59:14.632Z,14.30
2023-02-24T21:01:46.939Z,17.90
2023-02-24T21:04:17.096Z,14.37
2023-02-24T21:06:48.368Z,16.60
2023-02-24T21:09:15.916Z,21.40
2023-02-24T21:11:46.078Z,16.97
2023-02-24T21:14:18.629Z,23.93
2023-02-24T21:16:49.767Z,18.23
2023-02-24T21:19:20.305Z,21.97
2023-02-24T21:21:47.506Z,24.17
2023-02-24T21:24:18.462Z,18.50
2023-02-24T21:26:46.047Z,17.40
2023-02-24T21:29:19.120Z,23.33
2023-02-24T21:31:50.045Z,27.07
2023-02-24T21:34:18.805Z,22.37
2023-02-24T21:36:46.137Z,14.97
2023-02-24T21:39:15.837Z,17.70
2023-02-24T21:41:44.522Z,19.33
2023-02-24T21:44:15.408Z,13.23
2023-02-24T21:46:48.852Z,19.10
2023-02-24T21:49:19.043Z,13.37
2023-02-24T21:51:50.737Z,20.93
2023-02-24T21:54:17.766Z,18.63
2023-02-24T21:56:44.762Z,15.00
2023-02-24T21:59:14.851Z,10.63
2023-02-24T22:01:45.825Z,15.47
2023-02-24T22:04:18.082Z,13.97
2023-02-24T22:06:48.075Z,18.90
2023-02-24T22:09:25.612Z,13.73
2023-02-24T22:11:55.648Z,12.13
2023-02-24T22:14:23.614Z,17.63
2023-02-24T22:16:50.640Z,10.53
2023-02-24T22:19:21.067Z,15.57
2023-02-24T22:21:50.190Z,15.70
2023-02-24T22:24:20.447Z,19.60
2023-02-24T22:26:47.367Z,12.23
2023-02-24T22:29:14.390Z,17.17
2023-02-24T22:31:49.584Z,22.13
2023-02-24T22:34:19.997Z,14.83
2023-02-24T22:36:46.916Z,9.87
2023-02-24T22:39:16.807Z,12.70
2023-02-24T22:41:46.812Z,15.43
2023-02-24T22:44:21.252Z,10.63
2023-02-24T22:46:51.268Z,10.87
2023-02-24T22:49:18.528Z,11.03
2023-02-24T22:51:48.664Z,11.47
2023-02-24T22:54:16.953Z,17.03
2023-02-24T22:56:45.620Z,18.27
2023-02-24T22:59:13.260Z,15.97
2023-02-24T23:01:42.731Z,17.27
2023-02-24T23:04:16.161Z,13.80
2023-02-24T23:06:55.251Z,10.37
2023-02-24T23:09:22.431Z,5.60
2023-02-24T23:11:51.422Z,11.47
2023-02-24T23:14:20.658Z,12.07
2023-02-24T23:16:53.797Z,12.30
2023-02-24T23:19:24.010Z,13.20
2023-02-24T23:21:53.883Z,12.70
2023-02-24T23:24:22.629Z,12.67
2023-02-24T23:26:54.546Z,12.83
2023-02-24T23:29:24.243Z,13.60
2023-02-24T23:31:52.506Z,10.07
2023-02-24T23:34:19.666Z,13.47
2023-02-24T23:36:47.597Z,16.67
2023-02-24T23:39:20.464Z,9.73
2023-02-24T23:41:48.828Z,9.60
2023-02-24T23:44:18.873Z,9.97
2023-02-24T23:46:49.561Z,18.83
2023-02-24T23:49:19.578Z,15.97
2023-02-24T23:51:48.761Z,15.80
2023-02-24T23:54:17.965Z,16.00
2023-02-24T23:56:47.295Z,13.90
2023-02-24T23:59:17.308Z,14.63
